createdAt,value
2018-03-15T00:00:14.325Z,2.10
2018-03-15T00:02:42.476Z,2.10
2018-03-15T00:05:11.363Z,2.10
2018-03-15T00:07:40.260Z,2.10
2018-03-15T00:10:09.140Z,2.10
2018-03-15T00:12:37.274Z,2.10
2018-03-15T00:15:05.378Z,1.90
2018-03-15T00:17:33.538Z,1.90
2018-03-15T00:20:01.698Z,2.00
2018-03-15T00:22:32.566Z,2.00
2018-03-15T00:25:00.680Z,1.90
2018-03-15T00:27:28.818Z,1.80
2018-03-15T00:29:57.692Z,1.90
2018-03-15T00:32:25.845Z,1.80
2018-03-15T00:34:53.960Z,1.90
2018-03-15T00:37:22.860Z,1.90
2018-03-15T00:39:51.731Z,1.90
2018-03-15T00:42:19.877Z,1.90
2018-03-15T00:44:47.985Z,1.80
2018-03-15T00:47:16.894Z,1.90
2018-03-15T00:49:45.013Z,1.90
2018-03-15T00:52:14.745Z,1.80
2018-03-15T00:54:42.861Z,1.80
2018-03-15T00:57:11.004Z,1.90
2018-03-15T00:59:39.902Z,1.80
2018-03-15T01:02:08.073Z,1.80
2018-03-15T01:04:36.956Z,1.80
2018-03-15T01:07:05.107Z,1.80
2018-03-15T01:09:33.211Z,1.80
2018-03-15T01:12:03.095Z,1.80
2018-03-15T01:14:31.220Z,1.80
2018-03-15T01:16:59.370Z,1.70
2018-03-15T01:19:28.253Z,1.70
2018-03-15T01:21:56.396Z,1.60
2018-03-15T01:24:24.533Z,1.60
2018-03-15T01:26:52.642Z,1.60
2018-03-15T01:29:20.766Z,1.60
2018-03-15T01:31:48.885Z,1.60
2018-03-15T01:34:17.018Z,1.40
2018-03-15T01:36:45.131Z,1.50
2018-03-15T01:39:13.273Z,1.50
2018-03-15T01:41:41.384Z,1.40
2018-03-15T01:44:09.513Z,1.40
2018-03-15T01:46:37.623Z,1.40
2018-03-15T01:49:06.565Z,1.30
2018-03-15T01:51:35.581Z,1.30
2018-03-15T01:54:03.729Z,1.20
2018-03-15T01:56:32.617Z,1.10
2018-03-15T01:59:01.545Z,1.10
2018-03-15T02:01:29.685Z,1.10
2018-03-15T02:03:58.598Z,1.20
2018-03-15T02:06:26.764Z,1.20
2018-03-15T02:08:54.902Z,1.30
2018-03-15T02:11:23.022Z,1.00
2018-03-15T02:13:51.222Z,1.10
2018-03-15T02:16:19.336Z,1.10
2018-03-15T02:18:48.232Z,1.00
2018-03-15T02:21:17.104Z,1.10
2018-03-15T02:23:45.265Z,1.00
2018-03-15T02:26:13.400Z,1.10
2018-03-15T02:28:41.534Z,1.00
2018-03-15T02:31:10.418Z,1.00
2018-03-15T02:33:38.555Z,1.00
2018-03-15T02:36:06.687Z,1.00
2018-03-15T02:38:35.598Z,1.00
2018-03-15T02:41:03.710Z,1.00
2018-03-15T02:43:31.847Z,1.20
2018-03-15T02:46:01.093Z,1.20
2018-03-15T02:48:29.248Z,1.30
2018-03-15T02:50:57.369Z,1.20
2018-03-15T02:53:26.288Z,1.00
2018-03-15T02:55:54.413Z,1.00
2018-03-15T02:58:22.586Z,1.00
2018-03-15T03:00:50.711Z,0.90
2018-03-15T03:03:18.853Z,1.00
2018-03-15T03:05:47.733Z,0.90
2018-03-15T03:08:16.653Z,0.80
2018-03-15T03:10:44.781Z,0.80
2018-03-15T03:13:12.938Z,0.90
2018-03-15T03:15:41.968Z,0.80
2018-03-15T03:18:10.860Z,0.80
2018-03-15T03:20:39.750Z,0.80
2018-03-15T03:23:08.670Z,0.80
2018-03-15T03:25:36.779Z,0.70
2018-03-15T03:28:05.031Z,0.80
2018-03-15T03:30:33.158Z,0.80
2018-03-15T03:33:01.307Z,0.80
2018-03-15T03:35:29.419Z,0.80
2018-03-15T03:37:57.564Z,0.80
2018-03-15T03:40:25.685Z,0.80
2018-03-15T03:42:53.830Z,0.90
2018-03-15T03:45:22.717Z,0.70
2018-03-15T03:47:51.692Z,0.60
2018-03-15T03:50:19.833Z,0.60
2018-03-15T03:52:47.967Z,0.60
2018-03-15T03:55:16.855Z,0.50
2018-03-15T03:57:45.756Z,0.60
2018-03-15T04:00:13.872Z,0.50
2018-03-15T04:02:42.002Z,0.50
2018-03-15T04:05:10.166Z,0.40
2018-03-15T04:07:39.046Z,0.50
2018-03-15T04:10:07.960Z,0.60
2018-03-15T04:12:36.081Z,0.60
2018-03-15T04:15:04.224Z,0.60
2018-03-15T04:17:32.353Z,0.60
2018-03-15T04:20:00.500Z,0.60
2018-03-15T04:22:28.617Z,0.60
2018-03-15T04:24:57.526Z,0.50
2018-03-15T04:27:25.641Z,0.50
2018-03-15T04:29:53.785Z,0.50
2018-03-15T04:32:21.905Z,0.50
2018-03-15T04:34:50.044Z,0.50
2018-03-15T04:37:18.164Z,0.50
2018-03-15T04:39:47.085Z,0.50
2018-03-15T04:42:15.208Z,0.50
2018-03-15T04:44:43.381Z,0.50
2018-03-15T04:47:11.498Z,0.50
2018-03-15T04:49:39.654Z,0.50
2018-03-15T04:52:08.533Z,0.40
2018-03-15T04:54:36.686Z,0.40
2018-03-15T04:57:04.807Z,0.40
2018-03-15T04:59:32.961Z,0.40
2018-03-15T05:02:01.856Z,0.90
2018-03-15T05:04:30.771Z,0.70
2018-03-15T05:06:59.682Z,0.70
2018-03-15T05:09:27.828Z,0.50
2018-03-15T05:11:55.953Z,0.70
2018-03-15T05:14:24.100Z,0.40
2018-03-15T05:16:52.221Z,0.20
2018-03-15T05:19:20.355Z,0.30
2018-03-15T05:21:48.484Z,0.40
2018-03-15T05:24:17.393Z,0.40
2018-03-15T05:26:45.615Z,0.40
2018-03-15T05:29:14.538Z,0.40
2018-03-15T05:31:43.424Z,0.50
2018-03-15T05:34:12.338Z,0.50
2018-03-15T05:36:40.444Z,0.40
2018-03-15T05:39:08.594Z,0.50
2018-03-15T05:41:37.086Z,0.70
2018-03-15T05:44:05.438Z,0.70
2018-03-15T05:46:33.757Z,0.80
2018-03-15T05:49:01.964Z,0.70
2018-03-15T05:51:30.862Z,1.00
2018-03-15T05:53:59.779Z,1.50
2018-03-15T05:56:27.965Z,1.50
2018-03-15T05:58:56.165Z,2.00
2018-03-15T06:01:24.610Z,2.80
2018-03-15T06:03:55.259Z,3.50
2018-03-15T06:06:23.463Z,4.30
2018-03-15T06:08:52.376Z,5.00
2018-03-15T06:11:21.419Z,6.50
2018-03-15T06:13:49.600Z,6.40
2018-03-15T06:16:17.737Z,7.00
2018-03-15T06:18:46.646Z,8.50
2018-03-15T06:21:14.773Z,8.40
2018-03-15T06:23:42.921Z,9.30
2018-03-15T06:26:11.239Z,9.80
2018-03-15T06:28:39.447Z,10.60
2018-03-15T06:31:07.630Z,11.40
2018-03-15T06:33:35.786Z,12.10
2018-03-15T06:36:03.920Z,12.80
2018-03-15T06:38:32.072Z,13.30
2018-03-15T06:41:00.196Z,13.80
2018-03-15T06:43:29.086Z,14.40
2018-03-15T06:45:57.992Z,14.40
2018-03-15T06:48:27.985Z,14.40
2018-03-15T06:50:57.392Z,14.80
2018-03-15T06:53:25.585Z,14.80
2018-03-15T06:55:53.833Z,15.20
2018-03-15T06:58:21.964Z,15.30
2018-03-15T07:00:50.119Z,15.30
2018-03-15T07:03:18.250Z,15.90
2018-03-15T07:05:46.402Z,16.60
2018-03-15T07:08:14.520Z,17.00
2018-03-15T07:10:43.436Z,17.50
2018-03-15T07:13:11.573Z,17.40
2018-03-15T07:15:39.736Z,17.70
2018-03-15T07:18:07.950Z,17.60
2018-03-15T07:20:36.105Z,17.50
2018-03-15T07:23:04.997Z,18.10
2018-03-15T07:25:33.925Z,17.70
2018-03-15T07:28:02.049Z,17.70
2018-03-15T07:30:30.233Z,18.30
2018-03-15T07:32:58.345Z,19.50
2018-03-15T07:35:26.517Z,20.40
2018-03-15T07:37:54.644Z,20.50
2018-03-15T07:40:22.793Z,20.90
2018-03-15T07:42:50.927Z,21.80
2018-03-15T07:45:19.920Z,22.60
2018-03-15T07:47:48.784Z,23.80
2018-03-15T07:50:17.700Z,24.40
2018-03-15T07:52:45.825Z,24.70
2018-03-15T07:55:13.996Z,24.70
2018-03-15T07:57:42.121Z,24.90
2018-03-15T08:00:10.260Z,24.80
2018-03-15T08:02:38.398Z,24.80
2018-03-15T08:05:06.540Z,23.30
2018-03-15T08:07:34.670Z,22.80
2018-03-15T08:10:02.823Z,22.70
2018-03-15T08:12:30.953Z,22.10
2018-03-15T08:14:59.108Z,22.90
2018-03-15T08:17:27.997Z,23.70
2018-03-15T08:19:56.909Z,24.00
2018-03-15T08:22:25.041Z,24.00
2018-03-15T08:24:53.190Z,24.40
2018-03-15T08:35:15.420Z,24.90
2018-03-15T08:37:43.540Z,25.00
2018-03-15T08:40:11.755Z,25.10
2018-03-15T08:42:40.419Z,25.10
2018-03-15T08:45:08.567Z,24.60
2018-03-15T08:47:36.682Z,24.00
2018-03-15T08:50:04.868Z,22.50
2018-03-15T08:52:32.978Z,21.50
2018-03-15T08:55:01.106Z,21.40
2018-03-15T08:57:29.214Z,21.30
2018-03-15T08:59:57.359Z,21.20
2018-03-15T09:02:25.470Z,20.90
2018-03-15T09:04:53.638Z,20.60
2018-03-15T09:07:21.746Z,19.90
2018-03-15T09:09:49.878Z,19.20
2018-03-15T09:12:17.991Z,18.90
2018-03-15T09:14:46.161Z,18.90
2018-03-15T09:17:14.271Z,19.00
2018-03-15T09:19:42.412Z,19.10
2018-03-15T09:22:10.515Z,19.20
2018-03-15T09:24:38.652Z,18.90
2018-03-15T09:27:06.779Z,18.00
2018-03-15T09:29:36.271Z,16.70
2018-03-15T09:32:04.385Z,15.10
2018-03-15T09:34:32.537Z,14.60
2018-03-15T09:37:00.658Z,14.00
2018-03-15T09:39:29.559Z,14.80
2018-03-15T09:41:57.692Z,14.70
2018-03-15T09:44:25.837Z,15.10
2018-03-15T09:46:53.992Z,14.90
2018-03-15T09:49:22.134Z,14.70
2018-03-15T09:51:50.274Z,14.90
2018-03-15T09:54:18.410Z,15.00
2018-03-15T09:56:46.571Z,14.80
2018-03-15T09:59:14.738Z,14.40
2018-03-15T10:01:43.650Z,13.80
2018-03-15T10:04:11.758Z,13.70
2018-03-15T10:06:40.709Z,14.20
2018-03-15T10:09:08.865Z,14.20
2018-03-15T10:11:37.778Z,15.10
2018-03-15T10:14:05.912Z,15.10
2018-03-15T10:16:34.068Z,14.70
2018-03-15T10:19:02.583Z,13.80
2018-03-15T10:21:31.514Z,12.90
2018-03-15T10:24:00.990Z,12.80
2018-03-15T10:26:29.161Z,12.50
2018-03-15T10:28:58.062Z,12.10
2018-03-15T10:31:26.968Z,12.00
2018-03-15T10:33:55.102Z,11.90
2018-03-15T10:36:24.014Z,11.80
2018-03-15T10:38:52.142Z,11.80
2018-03-15T10:41:20.739Z,11.70
2018-03-15T10:43:48.875Z,11.80
2018-03-15T10:46:17.029Z,11.60
2018-03-15T10:48:46.530Z,11.30
2018-03-15T10:51:14.695Z,11.50
2018-03-15T10:53:42.837Z,11.20
2018-03-15T10:56:11.004Z,11.00
2018-03-15T10:58:39.145Z,11.00
2018-03-15T11:01:08.392Z,11.10
2018-03-15T11:03:43.071Z,11.20
2018-03-15T11:06:11.240Z,11.20
2018-03-15T11:08:39.370Z,11.30
2018-03-15T11:11:08.298Z,11.00
2018-03-15T11:13:36.496Z,11.00
2018-03-15T11:16:04.653Z,10.80
2018-03-15T11:18:32.790Z,10.90
2018-03-15T11:21:01.703Z,11.00
2018-03-15T11:23:29.842Z,11.00
2018-03-15T11:25:58.658Z,10.90
2018-03-15T11:28:26.801Z,11.10
2018-03-15T11:30:54.944Z,11.10
2018-03-15T11:33:23.586Z,11.00
2018-03-15T11:35:51.754Z,11.00
2018-03-15T11:38:20.655Z,11.30
2018-03-15T11:40:49.574Z,11.40
2018-03-15T11:43:17.729Z,11.40
2018-03-15T11:45:45.892Z,11.50
2018-03-15T11:48:14.799Z,11.30
2018-03-15T11:50:42.998Z,11.30
2018-03-15T11:53:11.084Z,11.30
2018-03-15T11:55:39.249Z,11.20
2018-03-15T11:58:07.375Z,11.20
2018-03-15T12:00:35.584Z,11.10
2018-03-15T12:03:03.745Z,11.10
2018-03-15T12:05:31.898Z,11.10
2018-03-15T12:08:00.032Z,11.10
2018-03-15T12:10:28.212Z,11.10
2018-03-15T12:12:56.348Z,11.20
2018-03-15T12:15:24.622Z,11.30
2018-03-15T12:17:52.762Z,11.40
2018-03-15T12:20:20.897Z,11.20
2018-03-15T12:22:49.024Z,11.30
2018-03-15T12:25:17.135Z,11.20
2018-03-15T12:27:45.269Z,11.20
2018-03-15T12:30:13.375Z,11.00
2018-03-15T12:32:41.918Z,11.10
2018-03-15T12:35:10.027Z,11.00
2018-03-15T12:37:38.183Z,11.00
2018-03-15T12:40:07.067Z,11.10
2018-03-15T12:42:35.415Z,11.10
2018-03-15T12:45:06.862Z,11.20
2018-03-15T12:47:38.560Z,11.20
2018-03-15T12:50:06.673Z,11.00
2018-03-15T12:52:34.812Z,11.00
2018-03-15T12:55:03.700Z,10.90
2018-03-15T12:57:32.618Z,10.90
2018-03-15T13:00:00.733Z,10.90
2018-03-15T13:02:28.864Z,10.90
2018-03-15T13:04:57.061Z,11.00
2018-03-15T13:07:25.208Z,11.10
2018-03-15T13:09:53.319Z,11.10
2018-03-15T13:12:21.476Z,11.10
2018-03-15T13:14:49.600Z,11.00
2018-03-15T13:17:18.520Z,11.00
2018-03-15T13:19:47.877Z,11.00
2018-03-15T13:22:16.099Z,10.80
2018-03-15T13:24:46.880Z,10.90
2018-03-15T13:27:15.883Z,10.90
2018-03-15T13:29:44.072Z,10.90
2018-03-15T13:32:15.378Z,10.90
2018-03-15T13:34:47.259Z,10.80
2018-03-15T13:37:21.047Z,11.00
2018-03-15T13:39:49.166Z,11.00
2018-03-15T13:42:18.081Z,11.10
2018-03-15T13:44:46.204Z,11.10
2018-03-15T13:47:14.323Z,11.20
2018-03-15T13:49:42.474Z,11.20
2018-03-15T13:52:11.363Z,11.30
2018-03-15T13:54:40.259Z,11.30
2018-03-15T13:57:09.152Z,11.30
2018-03-15T13:59:38.071Z,11.30
2018-03-15T14:02:06.186Z,11.30
2018-03-15T14:04:34.328Z,11.40
2018-03-15T14:07:02.520Z,11.40
2018-03-15T14:09:30.673Z,11.40
2018-03-15T14:11:58.793Z,11.50
2018-03-15T14:14:26.978Z,11.60
2018-03-15T14:16:55.162Z,11.60
2018-03-15T14:19:24.071Z,11.10
2018-03-15T14:21:52.186Z,11.10
2018-03-15T14:24:20.323Z,11.10
2018-03-15T14:26:48.445Z,11.10
2018-03-15T14:29:17.595Z,11.10
2018-03-15T14:31:45.692Z,10.90
2018-03-15T14:34:13.868Z,10.70
2018-03-15T14:36:41.985Z,10.50
2018-03-15T14:39:10.156Z,10.50
2018-03-15T14:41:38.263Z,10.60
2018-03-15T14:44:06.421Z,10.50
2018-03-15T14:46:35.331Z,10.20
2018-03-15T14:49:04.236Z,10.20
2018-03-15T14:51:32.374Z,10.10
2018-03-15T14:54:00.502Z,10.10
2018-03-15T14:56:28.652Z,10.00
2018-03-15T14:58:56.800Z,10.00
2018-03-15T15:01:25.671Z,9.90
2018-03-15T15:03:54.882Z,9.80
2018-03-15T15:06:23.193Z,10.00
2018-03-15T15:08:51.327Z,9.80
2018-03-15T15:11:19.439Z,9.80
2018-03-15T15:13:48.339Z,9.60
2018-03-15T15:16:16.458Z,9.60
2018-03-15T15:18:44.570Z,9.60
2018-03-15T15:21:13.478Z,9.50
2018-03-15T15:23:41.607Z,9.40
2018-03-15T15:26:09.736Z,9.40
2018-03-15T15:28:37.860Z,9.40
2018-03-15T15:31:05.983Z,9.40
2018-03-15T15:33:34.087Z,9.30
2018-03-15T15:36:02.269Z,9.20
2018-03-15T15:38:30.543Z,9.20
2018-03-15T15:40:58.684Z,9.20
2018-03-15T15:43:26.813Z,9.20
2018-03-15T15:45:54.944Z,9.20
2018-03-15T15:48:23.071Z,9.20
2018-03-15T15:50:52.375Z,9.30
2018-03-15T15:53:21.259Z,9.20
2018-03-15T15:55:49.401Z,9.20
2018-03-15T15:58:17.945Z,9.20
2018-03-15T16:00:46.183Z,9.30
2018-03-15T16:03:14.301Z,9.30
2018-03-15T16:05:42.438Z,9.20
2018-03-15T16:08:11.313Z,9.10
2018-03-15T16:10:39.457Z,9.10
2018-03-15T16:13:07.570Z,9.00
2018-03-15T16:15:35.715Z,8.90
2018-03-15T16:18:03.834Z,8.90
2018-03-15T16:20:32.786Z,8.90
2018-03-15T16:23:00.893Z,8.80
2018-03-15T16:25:29.020Z,8.80
2018-03-15T16:27:57.137Z,8.90
2018-03-15T16:30:25.273Z,8.70
2018-03-15T16:32:54.146Z,8.70
2018-03-15T16:35:22.288Z,8.70
2018-03-15T16:37:51.164Z,8.70
2018-03-15T16:40:20.165Z,8.70
2018-03-15T16:42:49.041Z,8.80
2018-03-15T16:45:17.175Z,8.80
2018-03-15T16:47:45.295Z,8.80
2018-03-15T16:50:13.433Z,8.90
2018-03-15T16:52:41.541Z,8.90
2018-03-15T16:55:10.422Z,8.90
2018-03-15T16:57:38.566Z,8.90
2018-03-15T17:00:06.707Z,8.80
2018-03-15T17:02:35.180Z,8.90
2018-03-15T17:05:05.721Z,8.90
2018-03-15T17:07:33.859Z,8.80
2018-03-15T17:10:01.981Z,8.80
2018-03-15T17:12:30.115Z,8.60
2018-03-15T17:14:58.222Z,8.40
2018-03-15T17:17:26.382Z,8.30
2018-03-15T17:19:55.286Z,8.00
2018-03-15T17:22:24.175Z,7.90
2018-03-15T17:24:52.310Z,7.80
2018-03-15T17:27:21.039Z,7.70
2018-03-15T17:29:49.714Z,7.60
2018-03-15T17:32:18.616Z,7.60
2018-03-15T17:34:47.497Z,7.60
2018-03-15T17:37:16.436Z,7.40
2018-03-15T17:39:44.552Z,7.40
2018-03-15T17:42:12.686Z,7.40
2018-03-15T17:44:40.809Z,7.40
2018-03-15T17:47:09.710Z,7.30
2018-03-15T17:49:38.592Z,7.30
2018-03-15T17:52:07.487Z,7.20
2018-03-15T17:54:36.368Z,7.20
2018-03-15T17:57:04.503Z,7.10
2018-03-15T17:59:32.744Z,7.20
2018-03-15T18:02:00.941Z,7.20
2018-03-15T18:04:29.260Z,7.20
2018-03-15T18:06:57.459Z,7.10
2018-03-15T18:09:26.334Z,7.00
2018-03-15T18:11:54.965Z,7.00
2018-03-15T18:14:23.202Z,7.00
2018-03-15T18:16:52.097Z,6.90
2018-03-15T18:19:20.966Z,6.90
2018-03-15T18:21:49.083Z,6.90
2018-03-15T18:24:17.216Z,6.80
2018-03-15T18:26:45.382Z,6.90
2018-03-15T18:29:13.531Z,6.90
2018-03-15T18:31:42.047Z,6.80
2018-03-15T18:34:10.184Z,6.80
2018-03-15T18:36:38.292Z,6.80
2018-03-15T18:39:06.439Z,6.70
2018-03-15T18:41:34.556Z,6.70
2018-03-15T18:44:03.459Z,6.80
2018-03-15T18:46:31.563Z,6.80
2018-03-15T18:48:59.705Z,6.70
2018-03-15T18:51:27.828Z,6.70
2018-03-15T18:53:56.012Z,6.60
2018-03-15T18:56:24.121Z,6.60
2018-03-15T18:58:52.272Z,6.60
2018-03-15T19:01:21.152Z,6.50
2018-03-15T19:03:49.278Z,6.50
2018-03-15T19:06:17.381Z,6.50
2018-03-15T19:08:46.272Z,6.60
2018-03-15T19:11:14.388Z,6.60
2018-03-15T19:13:43.290Z,6.60
2018-03-15T19:16:11.413Z,6.60
2018-03-15T19:18:39.531Z,6.70
2018-03-15T19:21:07.652Z,6.70
2018-03-15T19:23:35.783Z,6.60
2018-03-15T19:26:03.904Z,6.60
2018-03-15T19:28:32.036Z,6.70
2018-03-15T19:31:00.158Z,6.70
2018-03-15T19:33:28.293Z,6.60
2018-03-15T19:35:56.396Z,6.60
2018-03-15T19:38:24.535Z,6.60
2018-03-15T19:40:52.689Z,6.50
2018-03-15T19:43:21.580Z,6.30
2018-03-15T19:45:49.701Z,6.30
2018-03-15T19:48:17.822Z,6.30
2018-03-15T19:50:46.695Z,6.20
2018-03-15T19:53:14.838Z,6.10
2018-03-15T19:55:42.936Z,6.20
2018-03-15T19:58:11.077Z,6.20
2018-03-15T20:00:39.179Z,6.20
2018-03-15T20:03:07.375Z,6.20
2018-03-15T20:05:36.252Z,6.10
2018-03-15T20:08:04.444Z,6.10
2018-03-15T20:10:33.306Z,6.20
2018-03-15T20:13:01.453Z,6.20
2018-03-15T20:15:35.836Z,6.20
2018-03-15T20:18:03.972Z,6.20
2018-03-15T20:20:32.082Z,6.20
2018-03-15T20:23:06.696Z,6.20
2018-03-15T20:25:35.574Z,6.10
2018-03-15T20:28:10.158Z,6.20
2018-03-15T20:30:38.284Z,6.20
2018-03-15T20:33:13.055Z,6.20
2018-03-15T20:35:42.028Z,6.20
2018-03-15T20:38:10.382Z,6.10
2018-03-15T20:40:45.057Z,6.10
2018-03-15T20:43:13.159Z,6.10
2018-03-15T20:45:47.114Z,6.10
2018-03-15T20:48:20.963Z,6.00
2018-03-15T20:50:49.099Z,6.00
2018-03-15T20:53:17.208Z,6.00
2018-03-15T20:55:45.401Z,5.90
2018-03-15T20:58:13.616Z,5.90
2018-03-15T21:00:41.787Z,5.90
2018-03-15T21:03:09.889Z,5.90
2018-03-15T21:05:38.028Z,5.80
2018-03-15T21:08:06.143Z,5.90
2018-03-15T21:10:34.279Z,5.90
2018-03-15T21:13:02.395Z,5.90
2018-03-15T21:15:30.537Z,5.90
2018-03-15T21:17:58.646Z,5.80
2018-03-15T21:20:26.774Z,5.80
2018-03-15T21:22:54.891Z,5.80
2018-03-15T21:25:23.023Z,5.70
2018-03-15T21:27:51.147Z,5.60
2018-03-15T21:30:19.297Z,5.50
2018-03-15T21:32:47.407Z,5.40
2018-03-15T21:35:15.545Z,5.40
2018-03-15T21:37:43.676Z,5.40
2018-03-15T21:40:11.802Z,5.40
2018-03-15T21:42:39.903Z,5.50
2018-03-15T21:45:08.810Z,5.40
2018-03-15T21:47:37.750Z,5.40
2018-03-15T21:50:05.893Z,5.40
2018-03-15T21:52:34.008Z,5.30
2018-03-15T21:55:02.142Z,5.30
2018-03-15T21:57:30.263Z,5.30
2018-03-15T21:59:58.418Z,5.40
2018-03-15T22:02:26.533Z,5.40
2018-03-15T22:04:55.477Z,5.40
2018-03-15T22:07:23.590Z,5.40
2018-03-15T22:09:51.710Z,5.40
2018-03-15T22:12:19.824Z,5.40
2018-03-15T22:14:47.961Z,5.40
2018-03-15T22:17:16.088Z,5.50
2018-03-15T22:19:45.920Z,5.40
2018-03-15T22:22:14.035Z,5.30
2018-03-15T22:24:42.164Z,5.40
2018-03-15T22:27:10.288Z,5.30
2018-03-15T22:29:38.415Z,5.40
2018-03-15T22:32:06.522Z,5.40
2018-03-15T22:34:34.657Z,5.50
2018-03-15T22:37:02.770Z,5.50
2018-03-15T22:39:30.879Z,5.50
2018-03-15T22:41:59.779Z,5.50
2018-03-15T22:44:28.660Z,5.50
2018-03-15T22:46:57.553Z,5.60
2018-03-15T22:49:25.672Z,5.60
2018-03-15T22:51:53.797Z,5.60
2018-03-15T22:54:22.689Z,5.60
2018-03-15T22:56:50.836Z,5.60
2018-03-15T22:59:18.945Z,5.60
2018-03-15T23:01:47.833Z,5.50
2018-03-15T23:04:16.721Z,5.50
2018-03-15T23:06:45.632Z,5.50
2018-03-15T23:09:13.743Z,5.40
2018-03-15T23:11:41.893Z,5.40
2018-03-15T23:14:10.867Z,5.50
2018-03-15T23:16:38.995Z,5.50
2018-03-15T23:19:07.942Z,5.50
2018-03-15T23:21:36.845Z,5.50
2018-03-15T23:24:05.000Z,5.40
2018-03-15T23:26:33.912Z,5.40
2018-03-15T23:29:02.040Z,5.30
2018-03-15T23:31:30.174Z,5.50
2018-03-15T23:33:58.285Z,5.60
2018-03-15T23:36:26.422Z,5.50
2018-03-15T23:38:54.540Z,5.50
2018-03-15T23:41:22.688Z,5.50
2018-03-15T23:43:50.817Z,5.60
2018-03-15T23:46:19.016Z,5.50
2018-03-15T23:48:47.118Z,5.40
2018-03-15T23:51:15.254Z,5.40
2018-03-15T23:53:43.361Z,5.50
2018-03-15T23:56:11.491Z,5.40
2018-03-15T23:58:39.604Z,5.40
